createdAt,value
2019-02-14T00:00:51.039Z,-0.03
2019-02-14T00:01:51.035Z,-0.01
2019-02-14T00:02:51.020Z,-0.04
2019-02-14T00:03:51.008Z,-0.05
2019-02-14T00:05:01.590Z,-0.03
2019-02-14T00:05:50.987Z,-0.04
2019-02-14T00:06:50.975Z,-0.05
2019-02-14T00:07:50.983Z,-0.08
2019-02-14T00:08:50.958Z,0.00
2019-02-14T00:09:50.975Z,0.00
2019-02-14T00:10:50.986Z,-0.03
2019-02-14T00:11:50.930Z,-0.03
2019-02-14T00:12:50.912Z,-0.03
2019-02-14T00:13:50.930Z,-0.03
2019-02-14T00:14:50.894Z,0.07
2019-02-14T00:15:50.882Z,-0.07
2019-02-14T00:16:50.921Z,0.08
2019-02-14T00:17:50.864Z,0.08
2019-02-14T00:18:50.851Z,-0.03
2019-02-14T00:19:50.839Z,0.07
2019-02-14T00:20:50.831Z,0.08
2019-02-14T00:21:50.838Z,0.08
2019-02-14T00:22:50.855Z,0.02
2019-02-14T00:23:50.798Z,0.03
2019-02-14T00:24:50.786Z,-0.05
2019-02-14T00:25:50.778Z,0.03
2019-02-14T00:26:50.771Z,0.11
2019-02-14T00:27:50.769Z,-0.03
2019-02-14T00:28:50.788Z,0.00
2019-02-14T00:29:50.734Z,0.04
2019-02-14T00:30:50.740Z,-0.03
2019-02-14T00:31:50.717Z,0.08
2019-02-14T00:32:50.710Z,-0.04
2019-02-14T00:33:50.710Z,0.07
2019-02-14T00:34:50.736Z,0.08
2019-02-14T00:36:03.117Z,-0.04
2019-02-14T00:36:50.663Z,0.03
2019-02-14T00:37:50.651Z,0.03
2019-02-14T00:38:50.651Z,0.13
2019-02-14T00:39:50.632Z,0.08
2019-02-14T00:40:50.667Z,0.07
2019-02-14T00:41:50.614Z,0.07
2019-02-14T00:42:50.619Z,0.08
2019-02-14T00:43:50.594Z,0.08
2019-02-14T00:44:50.584Z,0.07
2019-02-14T00:45:50.593Z,0.10
2019-02-14T00:46:50.602Z,0.07
2019-02-14T00:47:50.551Z,0.10
2019-02-14T00:48:50.539Z,0.07
2019-02-14T00:49:50.530Z,0.11
2019-02-14T00:50:50.538Z,0.11
2019-02-14T00:51:50.508Z,0.02
2019-02-14T00:52:50.619Z,0.04
2019-02-14T00:53:50.484Z,0.11
2019-02-14T00:54:50.472Z,0.08
2019-02-14T00:55:50.468Z,0.10
2019-02-14T00:56:50.474Z,0.10
2019-02-14T00:57:50.438Z,0.07
2019-02-14T00:58:50.473Z,0.04
2019-02-14T00:59:50.422Z,0.08
2019-02-14T01:00:50.410Z,0.11
2019-02-14T01:01:50.402Z,0.15
2019-02-14T01:02:50.387Z,0.11
2019-02-14T01:03:50.406Z,0.21
2019-02-14T01:04:50.407Z,0.14
2019-02-14T01:05:50.362Z,0.18
2019-02-14T01:07:00.732Z,0.13
2019-02-14T01:07:50.332Z,0.10
2019-02-14T01:08:50.326Z,0.13
2019-02-14T01:09:50.318Z,0.15
2019-02-14T01:10:50.347Z,0.14
2019-02-14T01:11:50.297Z,0.18
2019-02-14T01:12:50.309Z,0.08
2019-02-14T01:13:50.279Z,0.08
2019-02-14T01:14:50.265Z,0.21
2019-02-14T01:15:50.280Z,0.20
2019-02-14T01:16:50.643Z,0.13
2019-02-14T01:17:50.244Z,0.15
2019-02-14T01:18:50.222Z,0.20
2019-02-14T01:19:50.211Z,0.15
2019-02-14T01:20:50.240Z,0.11
2019-02-14T01:21:50.196Z,0.15
2019-02-14T01:22:50.218Z,0.13
2019-02-14T01:23:50.179Z,0.08
2019-02-14T01:24:50.191Z,0.11
2019-02-14T01:25:50.152Z,0.17
2019-02-14T01:26:50.139Z,0.13
2019-02-14T01:27:50.124Z,0.15
2019-02-14T01:28:50.156Z,0.18
2019-02-14T01:29:50.104Z,0.18
2019-02-14T01:30:50.131Z,0.15
2019-02-14T01:31:50.088Z,0.11
2019-02-14T01:32:50.084Z,0.23
2019-02-14T01:33:50.062Z,0.20
2019-02-14T01:34:50.098Z,0.11
2019-02-14T01:35:50.050Z,0.20
2019-02-14T01:36:50.063Z,0.11
2019-02-14T01:38:00.034Z,0.20
2019-02-14T01:38:50.006Z,0.15
2019-02-14T01:39:49.997Z,0.18
2019-02-14T01:40:50.027Z,0.23
2019-02-14T01:41:49.984Z,0.21
2019-02-14T01:42:49.969Z,0.20
2019-02-14T01:43:49.957Z,0.17
2019-02-14T01:44:49.945Z,0.14
2019-02-14T01:45:49.931Z,0.14
2019-02-14T01:46:49.961Z,0.14
2019-02-14T01:47:49.912Z,0.15
2019-02-14T01:48:49.904Z,0.23
2019-02-14T01:49:49.891Z,0.14
2019-02-14T01:50:49.879Z,0.13
2019-02-14T01:51:49.875Z,0.24
2019-02-14T01:52:50.033Z,0.11
2019-02-14T01:53:49.848Z,0.23
2019-02-14T01:54:49.843Z,0.15
2019-02-14T01:55:49.835Z,0.15
2019-02-14T01:56:49.830Z,0.13
2019-02-14T01:57:49.809Z,0.14
2019-02-14T01:58:49.838Z,0.15
2019-02-14T01:59:49.785Z,0.14
2019-02-14T02:00:49.775Z,0.15
2019-02-14T02:01:49.764Z,0.15
2019-02-14T02:02:49.752Z,0.29
2019-02-14T02:03:49.746Z,0.28
2019-02-14T02:04:49.913Z,0.28
2019-02-14T02:05:50.995Z,0.23
2019-02-14T02:06:49.740Z,0.29
2019-02-14T02:07:49.705Z,0.26
2019-02-14T02:09:02.112Z,0.20
2019-02-14T02:09:49.680Z,0.20
2019-02-14T02:10:49.695Z,0.20
2019-02-14T02:11:49.661Z,0.20
2019-02-14T02:12:49.650Z,0.26
2019-02-14T02:13:49.657Z,0.31
2019-02-14T02:14:49.632Z,0.31
2019-02-14T02:15:49.623Z,0.35
2019-02-14T02:16:49.669Z,0.28
2019-02-14T02:17:49.597Z,0.31
2019-02-14T02:18:49.592Z,0.28
2019-02-14T02:19:49.577Z,0.33
2019-02-14T02:20:49.563Z,0.28
2019-02-14T02:21:49.598Z,0.28
2019-02-14T02:22:49.564Z,0.29
2019-02-14T02:23:50.134Z,0.29
2019-02-14T02:24:49.553Z,0.28
2019-02-14T02:25:49.508Z,0.31
2019-02-14T02:26:49.500Z,0.32
2019-02-14T02:27:49.494Z,0.39
2019-02-14T02:28:49.654Z,0.28
2019-02-14T02:29:49.468Z,0.33
2019-02-14T02:30:49.457Z,0.38
2019-02-14T02:31:49.456Z,0.38
2019-02-14T02:32:49.433Z,0.38
2019-02-14T02:33:49.428Z,0.39
2019-02-14T02:34:49.500Z,0.41
2019-02-14T02:35:49.406Z,0.39
2019-02-14T02:36:49.393Z,0.42
2019-02-14T02:37:49.410Z,0.44
2019-02-14T02:38:49.377Z,0.38
2019-02-14T02:40:00.332Z,0.41
2019-02-14T02:40:49.370Z,0.47
2019-02-14T02:41:49.342Z,0.38
2019-02-14T02:42:49.335Z,0.46
2019-02-14T02:43:49.328Z,0.41
2019-02-14T02:44:49.307Z,0.49
2019-02-14T02:45:49.757Z,0.46
2019-02-14T02:46:49.289Z,0.46
2019-02-14T02:47:49.276Z,0.46
2019-02-14T02:48:49.266Z,0.47
2019-02-14T02:49:49.256Z,0.44
2019-02-14T02:50:49.250Z,0.36
2019-02-14T02:51:49.446Z,0.50
2019-02-14T02:52:49.227Z,0.58
2019-02-14T02:53:49.217Z,0.51
2019-02-14T02:54:49.221Z,0.53
2019-02-14T02:55:49.202Z,0.46
2019-02-14T02:56:49.209Z,0.49
2019-02-14T02:57:49.208Z,0.53
2019-02-14T02:58:49.169Z,0.53
2019-02-14T02:59:49.154Z,0.50
2019-02-14T03:00:49.136Z,0.50
2019-02-14T03:01:49.128Z,0.51
2019-02-14T03:02:49.122Z,0.58
2019-02-14T03:03:49.143Z,0.51
2019-02-14T03:04:49.093Z,0.49
2019-02-14T03:05:49.094Z,0.53
2019-02-14T03:06:49.071Z,0.55
2019-02-14T03:07:49.063Z,0.55
2019-02-14T03:08:49.051Z,0.57
2019-02-14T03:09:49.075Z,0.58
2019-02-14T03:10:59.329Z,0.51
2019-02-14T03:11:49.055Z,0.53
2019-02-14T03:12:49.025Z,0.57
2019-02-14T03:13:48.998Z,0.50
2019-02-14T03:14:48.993Z,0.61
2019-02-14T03:15:49.043Z,0.60
2019-02-14T03:16:48.991Z,0.50
2019-02-14T03:17:48.953Z,0.51
2019-02-14T03:18:48.958Z,0.53
2019-02-14T03:19:48.949Z,0.55
2019-02-14T03:20:48.950Z,0.55
2019-02-14T03:21:48.969Z,0.58
2019-02-14T03:22:48.916Z,0.58
2019-02-14T03:23:48.894Z,0.46
2019-02-14T03:24:48.885Z,0.62
2019-02-14T03:25:48.870Z,0.60
2019-02-14T03:26:48.870Z,0.51
2019-02-14T03:27:48.888Z,0.69
2019-02-14T03:28:48.837Z,0.72
2019-02-14T03:29:48.847Z,0.72
2019-02-14T03:30:48.825Z,0.69
2019-02-14T03:31:48.809Z,0.68
2019-02-14T03:32:48.797Z,0.69
2019-02-14T03:33:48.952Z,0.73
2019-02-14T03:34:48.770Z,0.73
2019-02-14T03:35:48.766Z,0.70
2019-02-14T03:36:48.752Z,0.72
2019-02-14T03:37:48.744Z,0.66
2019-02-14T03:38:48.733Z,0.76
2019-02-14T03:39:48.902Z,0.68
2019-02-14T03:40:48.711Z,0.70
2019-02-14T03:41:58.768Z,0.73
2019-02-14T03:42:48.702Z,0.70
2019-02-14T03:43:48.680Z,0.70
2019-02-14T03:44:48.667Z,0.66
2019-02-14T03:45:48.703Z,0.70
2019-02-14T03:46:48.653Z,0.65
2019-02-14T03:47:48.636Z,0.75
2019-02-14T03:48:48.627Z,0.72
2019-02-14T03:49:55.629Z,0.73
2019-02-14T03:50:48.635Z,0.75
2019-02-14T03:51:48.650Z,0.73
2019-02-14T03:52:48.603Z,0.68
2019-02-14T03:53:48.575Z,0.69
2019-02-14T03:54:48.566Z,0.73
2019-02-14T03:55:48.574Z,0.76
2019-02-14T03:56:48.539Z,0.72
2019-02-14T03:57:48.568Z,0.70
2019-02-14T03:58:48.557Z,0.73
2019-02-14T03:59:48.532Z,0.73
2019-02-14T04:00:48.497Z,0.76
2019-02-14T04:01:48.495Z,0.72
2019-02-14T04:02:48.498Z,0.73
2019-02-14T04:03:48.489Z,0.73
2019-02-14T04:04:48.458Z,0.73
2019-02-14T04:05:48.449Z,0.75
2019-02-14T04:06:48.445Z,0.73
2019-02-14T04:07:48.421Z,0.70
2019-02-14T04:08:48.411Z,0.73
2019-02-14T04:09:48.577Z,0.73
2019-02-14T04:10:48.412Z,0.66
2019-02-14T04:11:48.404Z,0.75
2019-02-14T04:12:48.372Z,0.73
2019-02-14T04:13:48.373Z,0.72
2019-02-14T04:14:48.362Z,0.70
2019-02-14T04:15:48.391Z,0.69
2019-02-14T04:16:48.326Z,0.78
2019-02-14T04:17:48.327Z,0.75
2019-02-14T04:18:48.318Z,0.70
2019-02-14T04:19:48.295Z,0.75
2019-02-14T04:20:58.804Z,0.70
2019-02-14T04:21:48.295Z,0.75
2019-02-14T04:22:48.283Z,0.72
2019-02-14T04:23:48.252Z,0.72
2019-02-14T04:24:48.255Z,0.69
2019-02-14T04:25:48.243Z,0.69
2019-02-14T04:26:48.286Z,0.70
2019-02-14T04:27:48.215Z,0.66
2019-02-14T04:28:48.202Z,0.70
2019-02-14T04:29:48.212Z,0.69
2019-02-14T04:30:48.180Z,0.76
2019-02-14T04:31:48.173Z,0.66
2019-02-14T04:32:48.202Z,0.65
2019-02-14T04:33:48.168Z,0.72
2019-02-14T04:34:48.134Z,0.65
2019-02-14T04:35:48.131Z,0.73
2019-02-14T04:36:48.125Z,0.70
2019-02-14T04:37:48.118Z,0.73
2019-02-14T04:38:48.161Z,0.69
2019-02-14T04:39:48.115Z,0.73
2019-02-14T04:40:48.073Z,0.72
2019-02-14T04:41:48.071Z,0.66
2019-02-14T04:42:48.055Z,0.70
2019-02-14T04:43:48.060Z,0.72
2019-02-14T04:44:48.097Z,0.66
2019-02-14T04:45:48.020Z,0.69
2019-02-14T04:46:48.007Z,0.72
2019-02-14T04:47:47.997Z,0.76
2019-02-14T04:48:48.007Z,0.75
2019-02-14T04:49:47.974Z,0.79
2019-02-14T04:50:48.003Z,0.70
2019-02-14T04:52:00.123Z,0.70
2019-02-14T04:52:47.960Z,0.70
2019-02-14T04:53:47.950Z,0.73
2019-02-14T04:54:47.927Z,0.75
2019-02-14T04:55:47.915Z,0.72
2019-02-14T04:56:47.948Z,0.76
2019-02-14T04:57:47.890Z,0.70
2019-02-14T04:58:47.940Z,0.78
2019-02-14T04:59:47.875Z,0.80
2019-02-14T05:00:47.870Z,0.80
2019-02-14T05:01:47.846Z,0.80
2019-02-14T05:02:47.907Z,0.83
2019-02-14T05:03:47.826Z,0.76
2019-02-14T05:04:47.819Z,0.83
2019-02-14T05:05:47.802Z,0.79
2019-02-14T05:06:47.797Z,0.79
2019-02-14T05:07:47.793Z,0.79
2019-02-14T05:08:47.793Z,0.80
2019-02-14T05:09:47.764Z,0.79
2019-02-14T05:10:47.754Z,0.76
2019-02-14T05:11:47.752Z,0.79
2019-02-14T05:12:47.738Z,0.79
2019-02-14T05:13:47.718Z,0.69
2019-02-14T05:14:47.766Z,0.78
2019-02-14T05:15:47.709Z,0.75
2019-02-14T05:16:47.690Z,0.80
2019-02-14T05:17:47.677Z,0.78
2019-02-14T05:18:47.677Z,0.79
2019-02-14T05:19:47.667Z,0.73
2019-02-14T05:20:47.700Z,0.69
2019-02-14T05:21:47.636Z,0.70
2019-02-14T05:22:58.094Z,0.68
2019-02-14T05:23:47.630Z,0.70
2019-02-14T05:24:47.604Z,0.70
2019-02-14T05:25:47.596Z,0.75
2019-02-14T05:26:47.620Z,0.78
2019-02-14T05:27:47.580Z,0.84
2019-02-14T05:28:47.558Z,0.78
2019-02-14T05:29:47.624Z,0.80
2019-02-14T05:30:47.550Z,0.80
2019-02-14T05:31:47.533Z,0.86
2019-02-14T05:32:47.565Z,0.86
2019-02-14T05:33:47.551Z,0.79
2019-02-14T05:34:47.500Z,0.84
2019-02-14T05:35:47.483Z,0.87
2019-02-14T05:36:52.671Z,0.80
2019-02-14T05:37:48.634Z,0.80
2019-02-14T05:38:47.454Z,0.84
2019-02-14T05:39:47.441Z,0.86
2019-02-14T05:40:47.430Z,0.78
2019-02-14T05:41:47.424Z,0.88
2019-02-14T05:42:47.426Z,0.80
2019-02-14T05:43:47.547Z,0.84
2019-02-14T05:44:47.390Z,0.87
2019-02-14T05:45:47.420Z,0.83
2019-02-14T05:46:47.393Z,0.78
2019-02-14T05:47:47.359Z,0.83
2019-02-14T05:48:47.349Z,0.86
2019-02-14T05:49:47.406Z,0.84
2019-02-14T05:50:47.350Z,0.84
2019-02-14T05:51:47.343Z,0.83
2019-02-14T05:52:47.306Z,0.84
2019-02-14T05:53:59.233Z,0.86
2019-02-14T05:54:47.283Z,0.84
2019-02-14T05:55:47.314Z,0.80
2019-02-14T05:56:47.284Z,0.83
2019-02-14T05:57:47.252Z,0.79
2019-02-14T05:58:47.252Z,0.87
2019-02-14T05:59:47.236Z,0.88
2019-02-14T06:00:47.218Z,0.87
2019-02-14T06:01:47.311Z,0.83
2019-02-14T06:02:47.221Z,0.84
2019-02-14T06:03:47.220Z,0.80
2019-02-14T06:04:47.175Z,0.88
2019-02-14T06:05:47.174Z,0.91
2019-02-14T06:06:47.156Z,0.90
2019-02-14T06:07:47.168Z,0.93
2019-02-14T06:08:47.147Z,0.94
2019-02-14T06:09:47.124Z,1.02
2019-02-14T06:10:47.116Z,0.98
2019-02-14T06:11:47.101Z,1.02
2019-02-14T06:12:47.089Z,1.02
2019-02-14T06:13:47.127Z,0.94
2019-02-14T06:14:47.079Z,0.96
2019-02-14T06:15:47.062Z,0.98
2019-02-14T06:16:47.047Z,1.00
2019-02-14T06:17:47.037Z,1.02
2019-02-14T06:18:47.039Z,0.93
2019-02-14T06:19:47.117Z,1.02
2019-02-14T06:20:47.007Z,1.02
2019-02-14T06:21:46.996Z,0.96
2019-02-14T06:22:46.983Z,1.00
2019-02-14T06:23:46.973Z,1.02
2019-02-14T06:24:57.445Z,1.05
2019-02-14T06:25:46.954Z,0.94
2019-02-14T06:26:46.959Z,1.05
2019-02-14T06:27:46.942Z,1.08
2019-02-14T06:28:46.921Z,1.06
2019-02-14T06:29:46.917Z,1.05
2019-02-14T06:30:46.978Z,1.08
2019-02-14T06:31:46.912Z,1.12
2019-02-14T06:32:46.894Z,1.16
2019-02-14T06:33:46.869Z,1.12
2019-02-14T06:34:46.862Z,1.18
2019-02-14T06:35:46.848Z,1.20
2019-02-14T06:36:46.871Z,1.20
2019-02-14T06:37:46.832Z,1.20
2019-02-14T06:38:46.835Z,1.20
2019-02-14T06:39:46.801Z,1.18
2019-02-14T06:40:46.795Z,1.23
2019-02-14T06:41:46.783Z,1.15
2019-02-14T06:42:46.844Z,1.20
2019-02-14T06:43:46.767Z,1.18
2019-02-14T06:44:46.748Z,1.16
2019-02-14T06:45:46.750Z,1.20
2019-02-14T06:46:46.739Z,1.29
2019-02-14T06:47:46.718Z,1.22
2019-02-14T06:48:46.755Z,1.20
2019-02-14T06:49:46.704Z,1.16
2019-02-14T06:50:46.692Z,1.16
2019-02-14T06:51:46.675Z,1.23
2019-02-14T06:52:46.671Z,1.22
2019-02-14T06:53:46.654Z,1.29
2019-02-14T06:54:46.696Z,1.20
2019-02-14T06:55:57.981Z,1.23
2019-02-14T06:56:46.685Z,1.23
2019-02-14T06:57:46.620Z,1.36
2019-02-14T06:58:46.628Z,1.29
2019-02-14T06:59:46.661Z,1.30
2019-02-14T07:00:46.626Z,1.33
2019-02-14T07:01:46.571Z,1.40
2019-02-14T07:02:46.569Z,1.33
2019-02-14T07:03:46.570Z,1.44
2019-02-14T07:04:46.572Z,1.42
2019-02-14T07:05:46.538Z,1.40
2019-02-14T07:06:46.534Z,1.37
2019-02-14T07:07:46.514Z,1.47
2019-02-14T07:08:46.549Z,1.41
2019-02-14T07:09:46.497Z,1.44
2019-02-14T07:10:46.547Z,1.42
2019-02-14T07:11:46.466Z,1.48
2019-02-14T07:12:46.454Z,1.42
2019-02-14T07:13:47.297Z,1.42
2019-02-14T07:14:46.437Z,1.40
2019-02-14T07:15:46.440Z,1.40
2019-02-14T07:16:46.453Z,1.48
2019-02-14T07:17:46.399Z,1.48
2019-02-14T07:18:46.413Z,1.48
2019-02-14T07:19:46.423Z,1.58
2019-02-14T07:20:46.371Z,1.58
2019-02-14T07:21:46.388Z,1.52
2019-02-14T07:22:46.385Z,1.62
2019-02-14T07:23:46.337Z,1.52
2019-02-14T07:24:46.325Z,1.63
2019-02-14T07:25:46.316Z,1.60
2019-02-14T07:26:58.571Z,1.68
2019-02-14T07:27:46.335Z,1.63
2019-02-14T07:28:46.283Z,1.76
2019-02-14T07:29:46.328Z,1.68
2019-02-14T07:30:46.262Z,1.72
2019-02-14T07:31:46.255Z,1.68
2019-02-14T07:32:46.285Z,1.70
2019-02-14T07:33:46.230Z,1.62
2019-02-14T07:34:46.214Z,1.65
2019-02-14T07:35:46.206Z,1.69
2019-02-14T07:36:46.208Z,1.59
2019-02-14T07:37:46.184Z,1.69
2019-02-14T07:38:46.239Z,1.72
2019-02-14T07:39:46.163Z,1.76
2019-02-14T07:40:46.156Z,1.72
2019-02-14T07:41:46.149Z,1.80
2019-02-14T07:42:46.131Z,1.72
2019-02-14T07:43:46.120Z,1.86
2019-02-14T07:44:46.152Z,1.77
2019-02-14T07:45:46.116Z,1.80
2019-02-14T07:46:46.088Z,2.00
2019-02-14T07:47:46.080Z,1.91
2019-02-14T07:48:46.067Z,1.88
2019-02-14T07:49:46.064Z,1.99
2019-02-14T07:50:46.062Z,1.95
2019-02-14T07:51:46.042Z,1.99
2019-02-14T07:52:46.032Z,1.93
2019-02-14T07:53:46.017Z,1.98
2019-02-14T07:54:46.007Z,2.03
2019-02-14T07:55:46.035Z,2.03
2019-02-14T07:56:45.983Z,2.12
2019-02-14T07:57:56.130Z,2.17
2019-02-14T07:58:45.959Z,2.18
2019-02-14T07:59:45.956Z,2.17
2019-02-14T08:00:45.942Z,2.21
2019-02-14T08:01:45.970Z,2.17
2019-02-14T08:02:45.923Z,2.07
2019-02-14T08:03:45.910Z,2.18
2019-02-14T08:04:45.898Z,2.24
2019-02-14T08:05:45.898Z,2.23
2019-02-14T08:06:45.876Z,2.09
2019-02-14T08:07:45.909Z,2.16
2019-02-14T08:08:45.857Z,2.20
2019-02-14T08:09:45.852Z,2.03
2019-02-14T08:10:45.843Z,2.16
2019-02-14T08:11:45.839Z,2.23
2019-02-14T08:12:45.814Z,2.36
2019-02-14T08:13:45.960Z,2.54
2019-02-14T08:14:45.791Z,2.66
2019-02-14T08:15:46.395Z,2.52
2019-02-14T08:16:45.774Z,2.57
2019-02-14T08:17:45.761Z,2.53
2019-02-14T08:18:45.750Z,2.57
2019-02-14T08:19:45.781Z,2.64
2019-02-14T08:20:45.731Z,2.78
2019-02-14T08:21:45.721Z,2.85
2019-02-14T08:22:45.712Z,2.93
2019-02-14T08:23:45.708Z,2.87
2019-02-14T08:24:45.687Z,2.96
2019-02-14T08:25:45.714Z,2.90
2019-02-14T08:26:45.738Z,2.99
2019-02-14T08:27:45.709Z,2.95
2019-02-14T08:28:56.947Z,2.84
2019-02-14T08:29:45.642Z,2.85
2019-02-14T08:30:45.628Z,2.97
2019-02-14T08:31:46.425Z,3.05
2019-02-14T08:32:45.602Z,2.87
2019-02-14T08:33:46.430Z,2.57
2019-02-14T08:34:45.585Z,2.61
2019-02-14T08:35:45.570Z,2.82
2019-02-14T08:36:45.591Z,2.84
2019-02-14T08:37:46.186Z,2.85
2019-02-14T08:38:45.541Z,2.71
2019-02-14T08:39:45.528Z,2.84
2019-02-14T08:40:45.534Z,2.92
2019-02-14T08:41:45.548Z,3.10
2019-02-14T08:42:45.538Z,3.00
2019-02-14T08:43:45.482Z,2.95
2019-02-14T08:44:53.122Z,2.78
2019-02-14T08:45:52.450Z,3.05
2019-02-14T08:46:45.451Z,3.14
2019-02-14T08:47:53.162Z,3.43
2019-02-14T08:48:45.442Z,3.43
2019-02-14T08:49:45.421Z,3.36
2019-02-14T08:50:45.411Z,3.13
2019-02-14T08:51:45.399Z,3.18
2019-02-14T08:52:45.405Z,3.18
2019-02-14T08:53:45.421Z,2.82
2019-02-14T08:54:45.434Z,2.75
2019-02-14T08:55:45.356Z,2.72
2019-02-14T08:56:45.345Z,2.66
2019-02-14T08:57:45.343Z,2.79
2019-02-14T08:58:45.348Z,3.35
2019-02-14T08:59:45.318Z,3.70
2019-02-14T09:00:45.340Z,4.42
2019-02-14T09:01:45.302Z,4.14
2019-02-14T09:02:45.279Z,3.76
2019-02-14T09:03:45.266Z,3.60
2019-02-14T09:04:45.260Z,3.31
2019-02-14T09:05:45.250Z,3.28
2019-02-14T09:06:45.305Z,2.95
2019-02-14T09:07:53.832Z,2.74
2019-02-14T09:08:46.213Z,2.57
2019-02-14T09:09:45.203Z,2.39
2019-02-14T09:10:45.195Z,2.16
2019-02-14T09:11:45.188Z,2.07
2019-02-14T09:12:45.247Z,2.10
2019-02-14T09:13:45.158Z,2.03
2019-02-14T09:14:45.148Z,2.12
2019-02-14T09:15:45.138Z,1.93
2019-02-14T09:16:45.132Z,1.84
2019-02-14T09:17:45.118Z,1.83
2019-02-14T09:18:55.558Z,1.84
2019-02-14T09:19:45.096Z,1.77
2019-02-14T09:20:45.084Z,1.73
2019-02-14T09:21:45.080Z,1.81
2019-02-14T09:22:52.061Z,1.88
2019-02-14T09:23:45.056Z,1.84
2019-02-14T09:24:45.216Z,2.05
2019-02-14T09:25:45.030Z,1.90
2019-02-14T09:26:45.027Z,1.90
2019-02-14T09:27:45.051Z,1.99
2019-02-14T09:28:45.007Z,2.12
2019-02-14T09:29:44.992Z,2.28
2019-02-14T09:30:45.054Z,2.23
2019-02-14T09:31:44.975Z,2.34
2019-02-14T09:32:44.960Z,2.36
2019-02-14T09:33:44.952Z,2.27
2019-02-14T09:34:44.938Z,2.20
2019-02-14T09:35:44.931Z,2.05
2019-02-14T09:36:44.963Z,1.93
2019-02-14T09:37:44.923Z,1.88
2019-02-14T09:38:44.900Z,2.06
2019-02-14T09:39:44.886Z,2.28
2019-02-14T09:40:44.882Z,2.38
2019-02-14T09:41:44.868Z,2.43
2019-02-14T09:42:44.898Z,2.59
2019-02-14T09:43:44.848Z,2.69
2019-02-14T09:44:44.852Z,2.84
2019-02-14T09:45:44.822Z,2.84
2019-02-14T09:46:44.810Z,3.62
2019-02-14T09:47:44.810Z,3.15
2019-02-14T09:48:44.800Z,2.85
2019-02-14T09:49:44.794Z,2.84
2019-02-14T09:50:44.770Z,2.82
2019-02-14T09:51:44.764Z,2.90
2019-02-14T09:52:44.771Z,2.93
2019-02-14T09:53:56.103Z,3.15
2019-02-14T09:54:44.744Z,3.14
2019-02-14T09:55:44.722Z,3.14
2019-02-14T09:56:44.718Z,3.13
2019-02-14T09:57:44.734Z,2.81
2019-02-14T09:58:44.681Z,2.72
2019-02-14T09:59:44.847Z,2.75
2019-02-14T10:00:44.686Z,2.84
2019-02-14T10:01:44.647Z,3.39
2019-02-14T10:02:44.677Z,3.39
2019-02-14T10:03:44.628Z,3.00
2019-02-14T10:04:44.624Z,3.06
2019-02-14T10:05:44.664Z,2.81
2019-02-14T10:06:44.623Z,2.84
2019-02-14T10:07:44.605Z,2.72
2019-02-14T10:08:52.211Z,2.82
2019-02-14T10:09:44.624Z,2.82
2019-02-14T10:10:44.589Z,2.95
2019-02-14T10:11:44.601Z,3.06
2019-02-14T10:12:45.805Z,3.14
2019-02-14T10:13:45.526Z,3.13
2019-02-14T10:14:44.618Z,3.50
2019-02-14T10:15:44.538Z,5.10
2019-02-14T10:16:47.517Z,4.70
2019-02-14T10:17:45.504Z,4.37
2019-02-14T10:18:44.502Z,4.04
2019-02-14T10:19:45.009Z,3.13
2019-02-14T10:20:44.538Z,3.21
2019-02-14T10:21:44.451Z,3.36
2019-02-14T10:22:44.590Z,3.11
2019-02-14T10:23:44.477Z,2.84
2019-02-14T10:24:44.416Z,2.92
2019-02-14T10:25:44.427Z,2.78
2019-02-14T10:26:49.248Z,2.72
2019-02-14T10:27:44.430Z,2.56
2019-02-14T10:28:44.433Z,2.54
2019-02-14T10:29:44.362Z,2.46
2019-02-14T10:30:44.366Z,2.39
2019-02-14T10:31:44.422Z,2.41
2019-02-14T10:32:44.321Z,2.12
2019-02-14T10:33:44.319Z,2.23
2019-02-14T10:34:52.200Z,2.31
2019-02-14T10:35:44.308Z,2.27
2019-02-14T10:36:44.298Z,2.42
2019-02-14T10:37:44.269Z,2.38
2019-02-14T10:38:45.267Z,2.39
2019-02-14T10:39:44.240Z,2.56
2019-02-14T10:40:44.263Z,2.64
2019-02-14T10:41:44.214Z,2.64
2019-02-14T10:42:44.204Z,2.57
2019-02-14T10:43:48.765Z,2.89
2019-02-14T10:44:44.178Z,2.82
2019-02-14T10:45:44.187Z,3.08
2019-02-14T10:46:44.244Z,3.11
2019-02-14T10:47:44.150Z,3.20
2019-02-14T10:48:44.143Z,3.06
2019-02-14T10:49:44.151Z,3.29
2019-02-14T10:50:44.138Z,3.29
2019-02-14T10:51:44.100Z,3.65
2019-02-14T10:52:44.227Z,3.66
2019-02-14T10:53:44.088Z,3.75
2019-02-14T10:54:45.073Z,3.73
2019-02-14T10:55:44.063Z,3.58
2019-02-14T10:56:44.066Z,3.13
2019-02-14T10:57:44.042Z,2.92
2019-02-14T10:58:44.042Z,2.89
2019-02-14T10:59:44.014Z,2.66
2019-02-14T11:00:45.305Z,2.75
2019-02-14T11:01:43.993Z,2.74
2019-02-14T11:02:43.995Z,2.71
2019-02-14T11:03:44.007Z,2.57
2019-02-14T11:04:43.984Z,2.61
2019-02-14T11:05:55.113Z,2.69
2019-02-14T11:06:43.945Z,2.87
2019-02-14T11:07:43.978Z,2.84
2019-02-14T11:08:43.925Z,2.82
2019-02-14T11:09:43.950Z,2.95
2019-02-14T11:10:43.898Z,2.92
2019-02-14T11:11:43.886Z,2.71
2019-02-14T11:12:43.883Z,2.84
2019-02-14T11:13:43.879Z,2.93
2019-02-14T11:14:43.852Z,2.95
2019-02-14T11:15:51.243Z,2.54
2019-02-14T11:16:43.833Z,2.69
2019-02-14T11:17:43.827Z,2.85
2019-02-14T11:18:44.671Z,3.17
2019-02-14T11:19:43.803Z,3.29
2019-02-14T11:20:43.805Z,3.54
2019-02-14T11:21:43.822Z,3.55
2019-02-14T11:22:43.776Z,3.29
2019-02-14T11:23:43.762Z,2.87
2019-02-14T11:24:43.748Z,2.43
2019-02-14T11:25:43.815Z,2.53
2019-02-14T11:26:43.755Z,2.57
2019-02-14T11:27:43.733Z,2.53
2019-02-14T11:28:43.757Z,2.59
2019-02-14T11:29:43.697Z,2.71
2019-02-14T11:30:43.684Z,2.72
2019-02-14T11:31:43.673Z,2.71
2019-02-14T11:32:43.670Z,2.97
2019-02-14T11:33:43.727Z,3.13
2019-02-14T11:34:43.717Z,3.00
2019-02-14T11:35:43.649Z,2.99
2019-02-14T11:36:43.625Z,3.05
2019-02-14T11:37:43.609Z,3.05
2019-02-14T11:38:43.605Z,3.05
2019-02-14T11:39:43.633Z,2.87
2019-02-14T11:40:43.587Z,3.05
2019-02-14T11:41:43.569Z,3.17
2019-02-14T11:42:43.557Z,3.14
2019-02-14T11:43:43.558Z,3.26
2019-02-14T11:44:43.539Z,3.57
2019-02-14T11:45:43.561Z,3.24
2019-02-14T11:46:53.565Z,3.11
2019-02-14T11:47:43.507Z,3.05
2019-02-14T11:48:43.491Z,2.74
2019-02-14T11:49:43.484Z,2.46
2019-02-14T11:50:43.476Z,2.41
2019-02-14T11:51:43.495Z,2.39
2019-02-14T11:52:43.456Z,2.09
2019-02-14T11:53:43.438Z,2.07
2019-02-14T11:54:43.433Z,1.90
2019-02-14T11:55:43.423Z,1.90
2019-02-14T11:56:43.413Z,1.86
2019-02-14T11:57:43.574Z,1.81
2019-02-14T11:58:43.397Z,1.87
2019-02-14T11:59:43.387Z,1.88
2019-02-14T12:00:43.361Z,2.05
2019-02-14T12:01:43.358Z,2.03
2019-02-14T12:02:43.345Z,2.02
2019-02-14T12:03:43.366Z,2.14
2019-02-14T12:04:43.323Z,1.90
2019-02-14T12:05:43.312Z,1.83
2019-02-14T12:06:43.388Z,1.65
2019-02-14T12:07:43.294Z,1.65
2019-02-14T12:08:52.986Z,1.62
2019-02-14T12:09:44.310Z,1.62
2019-02-14T12:10:43.255Z,1.69
2019-02-14T12:11:43.248Z,1.60
2019-02-14T12:12:43.303Z,1.60
2019-02-14T12:13:43.225Z,1.70
2019-02-14T12:14:43.232Z,1.80
2019-02-14T12:15:43.242Z,1.48
2019-02-14T12:16:43.189Z,1.51
2019-02-14T12:17:53.124Z,1.50
2019-02-14T12:18:43.168Z,1.34
2019-02-14T12:19:43.164Z,1.34
2019-02-14T12:20:43.153Z,1.33
2019-02-14T12:21:43.184Z,1.41
2019-02-14T12:22:46.783Z,1.34
2019-02-14T12:23:43.117Z,1.34
2019-02-14T12:24:43.108Z,1.33
2019-02-14T12:25:43.102Z,1.40
2019-02-14T12:26:43.086Z,1.18
2019-02-14T12:27:43.120Z,1.34
2019-02-14T12:28:43.065Z,1.30
2019-02-14T12:29:43.053Z,1.27
2019-02-14T12:30:43.049Z,1.48
2019-02-14T12:31:43.031Z,1.34
2019-02-14T12:32:43.019Z,1.41
2019-02-14T12:33:43.184Z,1.48
2019-02-14T12:34:43.653Z,1.48
2019-02-14T12:35:42.988Z,1.50
2019-02-14T12:36:42.997Z,1.41
2019-02-14T12:37:42.980Z,1.37
2019-02-14T12:38:42.957Z,1.37
2019-02-14T12:39:42.992Z,1.30
2019-02-14T12:40:42.943Z,1.32
2019-02-14T12:41:42.927Z,1.23
2019-02-14T12:42:42.923Z,1.20
2019-02-14T12:43:42.907Z,1.27
2019-02-14T12:44:42.900Z,1.18
2019-02-14T12:45:42.920Z,1.09
2019-02-14T12:46:42.894Z,1.18
2019-02-14T12:47:42.865Z,1.16
2019-02-14T12:48:52.777Z,1.16
2019-02-14T12:49:42.847Z,1.20
2019-02-14T12:50:42.831Z,1.23
2019-02-14T12:51:42.896Z,1.16
2019-02-14T12:52:42.813Z,1.23
2019-02-14T12:53:42.798Z,1.12
2019-02-14T12:54:42.795Z,1.11
2019-02-14T12:55:42.784Z,1.14
2019-02-14T12:56:42.767Z,1.20
2019-02-14T12:57:42.801Z,1.12
2019-02-14T12:58:42.771Z,1.11
2019-02-14T12:59:42.745Z,0.97
2019-02-14T13:00:42.726Z,0.97
2019-02-14T13:01:42.722Z,1.02
2019-02-14T13:02:42.702Z,0.93
2019-02-14T13:03:42.730Z,1.08
2019-02-14T13:04:42.686Z,1.12
2019-02-14T13:05:42.668Z,1.12
2019-02-14T13:06:42.657Z,1.12
2019-02-14T13:07:42.652Z,1.24
2019-02-14T13:08:42.660Z,1.18
2019-02-14T13:09:42.715Z,1.22
2019-02-14T13:10:42.673Z,1.11
2019-02-14T13:11:42.610Z,1.12
2019-02-14T13:12:42.594Z,1.15
2019-02-14T13:13:42.595Z,1.22
2019-02-14T13:14:42.577Z,1.22
2019-02-14T13:15:42.711Z,1.22
2019-02-14T13:16:42.554Z,1.22
2019-02-14T13:17:42.547Z,1.24